UPSVAC Airport Information Service

Aeroport Sheremet’yevo

ICAO: UUEE Country: Russia, EU
Latitude: 55.9719 Longitude: 37.4139
Latest Arrival : UPSE153 (EDDK-UUEE) Latest Departure : UPSE1014 (UUEE-EDDK)


WX CaptureLIVE
Data provided by noaa.gov | Fetched at 14:35:13

METAR : UUEE 141400Z 13003MPS 100V160 CAVOK 21/01 Q1016 R06R/CLRD62 R06C/CLRD62 NOSIG

TAF : UUEE 141352Z 1415/1515 15005G10MPS 9000 SCT040 TX20/1513Z TN08/1502Z BECMG 1418/1421 08003MPS


Runway Data for UUEE
Data provided by openaviationdata.com

Runway ID Mag Var Hdg Length Elevation Surface ILS Freq ILS Id ILS Slope
07L 9 65° 11643 ft 630 ft Concrete 108.1 IMR 2
07R 9 66° 11973 ft 630 ft Concrete 109.1 INL 2
25L 9 246° 11973 ft 630 ft Concrete 110.5 IBW 2
25R 9 245° 11643 ft 630 ft Concrete 111.3 IAD 2

Aeroport Sheremet’yevo, Russia, EU
Use only for reference purposes



Not for navigational purposes.